Time;durP1;ratioP1;P1;durP2;ratioP2;P2;SDS_P1;SDS_P2;PMS_P1;PMS_P2;Temp;Humidity;BMP_temperature;BMP_pressure;BME280_temperature;BME280_humidity;BME280_pressure;Samples;Min_cycle;Max_cycle;Signal;HPM_P1;HPM_P2
2021/09/02 00:00:11;;;;;;;5.10;2.90;;;;;;;-128.00;-1.00;-1.00;136391;1177;1097229;-75
2021/09/02 00:03:37;;;;;;;9.30;3.30;;;;;;;-128.00;-1.00;-1.00;136809;1179;1095540;-77
2021/09/02 00:06:42;;;;;;;5.50;3.30;;;;;;;-128.00;-1.00;-1.00;136284;1177;1096492;-75
2021/09/02 00:09:48;;;;;;;5.50;3.30;;;;;;;-128.00;-1.00;-1.00;136244;1177;1093959;-75
2021/09/02 00:12:53;;;;;;;5.50;3.30;;;;;;;-128.00;-1.00;-1.00;136432;1177;1097056;-76
2021/09/02 00:15:59;;;;;;;6.00;3.30;;;;;;;-128.00;-1.00;-1.00;136664;1177;1096726;-76
2021/09/02 00:19:04;;;;;;;5.90;3.50;;;;;;;-128.00;-1.00;-1.00;136543;1177;1095879;-75
2021/09/02 00:22:10;;;;;;;5.20;3.00;;;;;;;-128.00;-1.00;-1.00;136709;1177;1096468;-76
2021/09/02 00:25:15;;;;;;;5.50;3.20;;;;;;;-128.00;-1.00;-1.00;136949;1177;1096229;-76
2021/09/02 00:28:22;;;;;;;5.70;3.30;;;;;;;-128.00;-1.00;-1.00;137018;1177;1096524;-73
2021/09/02 00:31:28;;;;;;;6.00;3.70;;;;;;;-128.00;-1.00;-1.00;136247;1177;1097253;-75
2021/09/02 00:34:33;;;;;;;5.70;3.40;;;;;;;-128.00;-1.00;-1.00;136322;1178;1096819;-75
2021/09/02 00:37:38;;;;;;;5.70;3.40;;;;;;;-128.00;-1.00;-1.00;136340;1178;1096900;-76
2021/09/02 00:40:44;;;;;;;5.20;3.40;;;;;;;-128.00;-1.00;-1.00;136483;1177;1096302;-75
2021/09/02 00:43:49;;;;;;;5.40;3.20;;;;;;;-128.00;-1.00;-1.00;136314;1177;1096663;-75
2021/09/02 00:46:55;;;;;;;5.80;3.10;;;;;;;-128.00;-1.00;-1.00;136299;1178;1097055;-76
2021/09/02 00:50:00;;;;;;;7.80;3.40;;;;;;;-128.00;-1.00;-1.00;136299;1177;1098224;-76
2021/09/02 00:53:07;;;;;;;5.30;3.10;;;;;;;-128.00;-1.00;-1.00;136229;1177;1096591;-79
2021/09/02 00:56:13;;;;;;;6.90;3.90;;;;;;;-128.00;-1.00;-1.00;136236;1177;1095232;-78
2021/09/02 00:59:18;;;;;;;6.50;3.40;;;;;;;-128.00;-1.00;-1.00;137282;1177;1097769;-77
2021/09/02 01:02:24;;;;;;;5.40;3.40;;;;;;;-128.00;-1.00;-1.00;137227;1177;1096059;-76
2021/09/02 01:05:29;;;;;;;6.30;3.30;;;;;;;-128.00;-1.00;-1.00;136898;1177;1093580;-77
2021/09/02 01:08:37;;;;;;;5.10;2.80;;;;;;;-128.00;-1.00;-1.00;136693;1177;1096476;-77
2021/09/02 01:11:43;;;;;;;5.80;3.30;;;;;;;-128.00;-1.00;-1.00;136593;1183;1094874;-77
2021/09/02 01:14:49;;;;;;;6.00;3.50;;;;;;;-128.00;-1.00;-1.00;136625;1178;1096753;-76
2021/09/02 01:17:57;;;;;;;7.00;3.70;;;;;;;-128.00;-1.00;-1.00;136183;1177;1096031;-76
2021/09/02 01:21:04;;;;;;;8.10;3.80;;;;;;;-128.00;-1.00;-1.00;136505;1177;1096728;-76
2021/09/02 01:24:10;;;;;;;8.00;3.70;;;;;;;-128.00;-1.00;-1.00;136661;1177;1097397;-76
2021/09/02 01:27:15;;;;;;;6.20;3.20;;;;;;;-128.00;-1.00;-1.00;136172;1177;1098345;-76
2021/09/02 01:30:22;;;;;;;8.50;3.00;;;;;;;-128.00;-1.00;-1.00;136681;1177;1096956;-75
2021/09/02 01:33:27;;;;;;;5.50;3.40;;;;;;;-128.00;-1.00;-1.00;136218;1178;1093603;-77
2021/09/02 01:36:32;;;;;;;6.40;3.70;;;;;;;-128.00;-1.00;-1.00;136233;1179;1096680;-75
2021/09/02 01:39:39;;;;;;;7.70;3.80;;;;;;;-128.00;-1.00;-1.00;136264;1178;1097010;-76
2021/09/02 01:42:44;;;;;;;5.40;3.60;;;;;;;-128.00;-1.00;-1.00;136212;1177;1097517;-75
2021/09/02 01:45:50;;;;;;;8.30;4.10;;;;;;;-128.00;-1.00;-1.00;136245;1177;1096247;-76
2021/09/02 01:48:56;;;;;;;5.60;3.00;;;;;;;-128.00;-1.00;-1.00;136383;1177;1097093;-76
2021/09/02 01:52:01;;;;;;;6.20;2.80;;;;;;;-128.00;-1.00;-1.00;136300;1185;1095985;-75
2021/09/02 01:55:12;;;;;;;5.50;3.40;;;;;;;-128.00;-1.00;-1.00;136377;1178;1096003;-77
2021/09/02 01:58:18;;;;;;;7.60;3.40;;;;;;;-128.00;-1.00;-1.00;136782;1177;1094310;-77
2021/09/02 02:01:23;;;;;;;6.50;3.80;;;;;;;-128.00;-1.00;-1.00;136730;1177;1096237;-73
2021/09/02 02:04:29;;;;;;;6.60;3.80;;;;;;;-128.00;-1.00;-1.00;136296;1178;1096108;-73
2021/09/02 02:07:34;;;;;;;7.10;4.00;;;;;;;-128.00;-1.00;-1.00;136211;1177;1097180;-75
2021/09/02 02:10:40;;;;;;;5.30;3.50;;;;;;;-128.00;-1.00;-1.00;136203;1177;1095888;-74
2021/09/02 02:13:46;;;;;;;6.30;3.60;;;;;;;-128.00;-1.00;-1.00;136219;1177;1097793;-74
2021/09/02 02:16:51;;;;;;;6.60;3.70;;;;;;;-128.00;-1.00;-1.00;136254;1177;1094928;-73
2021/09/02 02:19:57;;;;;;;7.70;4.20;;;;;;;-128.00;-1.00;-1.00;136325;1178;1096066;-74
2021/09/02 02:23:02;;;;;;;6.30;4.00;;;;;;;-128.00;-1.00;-1.00;136308;1177;1096723;-75
2021/09/02 02:26:08;;;;;;;9.00;4.20;;;;;;;-128.00;-1.00;-1.00;136237;1177;1096740;-74
2021/09/02 02:29:13;;;;;;;7.80;4.40;;;;;;;-128.00;-1.00;-1.00;136305;1178;1095718;-73
2021/09/02 02:32:18;;;;;;;7.10;3.80;;;;;;;-128.00;-1.00;-1.00;136213;1177;1096917;-72
2021/09/02 02:35:24;;;;;;;8.00;3.60;;;;;;;-128.00;-1.00;-1.00;136232;1177;1097230;-75
2021/09/02 02:38:29;;;;;;;7.20;3.60;;;;;;;-128.00;-1.00;-1.00;136280;1177;1095906;-72
2021/09/02 02:41:35;;;;;;;6.40;3.80;;;;;;;-128.00;-1.00;-1.00;136198;1177;1096834;-72
2021/09/02 02:44:41;;;;;;;8.00;4.00;;;;;;;-128.00;-1.00;-1.00;136204;1177;1094700;-72
2021/09/02 02:47:46;;;;;;;8.20;4.10;;;;;;;-128.00;-1.00;-1.00;136255;1177;1096465;-73
2021/09/02 02:50:52;;;;;;;7.30;4.20;;;;;;;-128.00;-1.00;-1.00;136344;1177;1096865;-73
2021/09/02 02:53:57;;;;;;;7.40;3.50;;;;;;;-128.00;-1.00;-1.00;136159;1177;1096441;-74
2021/09/02 02:57:03;;;;;;;5.40;3.20;;;;;;;-128.00;-1.00;-1.00;136218;1177;1097343;-73
2021/09/02 03:00:11;;;;;;;6.70;3.90;;;;;;;-128.00;-1.00;-1.00;136227;1178;1098294;-71
2021/09/02 03:03:16;;;;;;;6.70;4.00;;;;;;;-128.00;-1.00;-1.00;136222;1177;1093527;-73
2021/09/02 03:06:21;;;;;;;8.00;4.60;;;;;;;-128.00;-1.00;-1.00;136135;1177;1096746;-70
2021/09/02 03:09:27;;;;;;;9.70;4.50;;;;;;;-128.00;-1.00;-1.00;135956;1177;1097017;-70
2021/09/02 03:12:34;;;;;;;7.60;4.30;;;;;;;-128.00;-1.00;-1.00;135898;1177;1097313;-70
2021/09/02 03:15:40;;;;;;;9.60;3.90;;;;;;;-128.00;-1.00;-1.00;135908;1177;1096812;-70
2021/09/02 03:18:45;;;;;;;7.40;3.50;;;;;;;-128.00;-1.00;-1.00;136071;1177;1096576;-71
2021/09/02 03:21:50;;;;;;;7.10;3.70;;;;;;;-128.00;-1.00;-1.00;135945;1177;1095980;-72
2021/09/02 03:24:56;;;;;;;5.80;3.90;;;;;;;-128.00;-1.00;-1.00;136011;1178;1096903;-71
2021/09/02 03:28:01;;;;;;;6.20;4.00;;;;;;;-128.00;-1.00;-1.00;136085;1177;1096114;-72
2021/09/02 03:31:06;;;;;;;6.50;3.80;;;;;;;-128.00;-1.00;-1.00;136125;1177;1096546;-71
2021/09/02 03:34:12;;;;;;;7.70;4.30;;;;;;;-128.00;-1.00;-1.00;136088;1178;1096274;-72
2021/09/02 03:37:17;;;;;;;8.50;4.40;;;;;;;-128.00;-1.00;-1.00;136136;1177;1097098;-72
2021/09/02 03:40:23;;;;;;;7.70;3.60;;;;;;;-128.00;-1.00;-1.00;136097;1177;1096642;-72
2021/09/02 03:43:28;;;;;;;9.00;3.70;;;;;;;-128.00;-1.00;-1.00;136181;1177;1097740;-72
2021/09/02 03:46:33;;;;;;;6.50;4.20;;;;;;;-128.00;-1.00;-1.00;136160;1177;1096898;-71
2021/09/02 03:49:39;;;;;;;6.90;4.00;;;;;;;-128.00;-1.00;-1.00;136088;1178;1095535;-72
2021/09/02 03:52:45;;;;;;;6.90;4.20;;;;;;;-128.00;-1.00;-1.00;136255;1177;1095456;-72
2021/09/02 03:55:50;;;;;;;6.90;4.00;;;;;;;-128.00;-1.00;-1.00;136177;1178;1097069;-72
2021/09/02 03:58:56;;;;;;;6.80;3.60;;;;;;;-128.00;-1.00;-1.00;136261;1178;1094048;-72
2021/09/02 04:02:01;;;;;;;5.90;3.60;;;;;;;-128.00;-1.00;-1.00;136210;1178;1094883;-74
2021/09/02 04:05:09;;;;;;;7.40;3.90;;;;;;;-128.00;-1.00;-1.00;136165;1177;1096255;-72
2021/09/02 04:08:15;;;;;;;7.80;4.40;;;;;;;-128.00;-1.00;-1.00;136302;1177;1097207;-72
2021/09/02 04:11:21;;;;;;;8.80;4.20;;;;;;;-128.00;-1.00;-1.00;136208;1177;1098534;-71
2021/09/02 04:14:26;;;;;;;8.90;4.70;;;;;;;-128.00;-1.00;-1.00;136260;1178;1096985;-72
2021/09/02 04:17:31;;;;;;;6.30;3.90;;;;;;;-128.00;-1.00;-1.00;136101;1177;1096158;-73
2021/09/02 04:20:37;;;;;;;12.50;4.10;;;;;;;-128.00;-1.00;-1.00;136091;1177;1095798;-73
2021/09/02 04:23:43;;;;;;;8.10;4.00;;;;;;;-128.00;-1.00;-1.00;136182;1177;1096349;-71
2021/09/02 04:26:49;;;;;;;8.40;4.10;;;;;;;-128.00;-1.00;-1.00;136215;1178;1097146;-74
2021/09/02 04:29:54;;;;;;;7.80;4.50;;;;;;;-128.00;-1.00;-1.00;136091;1178;1096864;-73
2021/09/02 04:33:01;;;;;;;7.90;4.30;;;;;;;-128.00;-1.00;-1.00;136244;1177;1096840;-72
2021/09/02 04:36:07;;;;;;;5.80;3.60;;;;;;;-128.00;-1.00;-1.00;136288;1178;1096418;-71
2021/09/02 04:39:12;;;;;;;8.60;4.20;;;;;;;-128.00;-1.00;-1.00;136107;1179;1094568;-72
2021/09/02 04:42:18;;;;;;;8.00;4.10;;;;;;;-128.00;-1.00;-1.00;136256;1179;1096639;-73
2021/09/02 04:45:23;;;;;;;9.80;4.80;;;;;;;-128.00;-1.00;-1.00;136233;1180;1096468;-74
2021/09/02 04:48:28;;;;;;;8.30;4.30;;;;;;;-128.00;-1.00;-1.00;136269;1179;1097554;-74
2021/09/02 04:51:34;;;;;;;6.70;4.10;;;;;;;-128.00;-1.00;-1.00;136267;1181;1096959;-73
2021/09/02 04:54:39;;;;;;;8.00;4.10;;;;;;;-128.00;-1.00;-1.00;136240;1181;1095960;-74
2021/09/02 04:57:44;;;;;;;7.50;3.80;;;;;;;-128.00;-1.00;-1.00;136303;1181;1096555;-74
2021/09/02 05:00:50;;;;;;;6.70;3.90;;;;;;;-128.00;-1.00;-1.00;136279;1177;1096575;-74
2021/09/02 05:03:55;;;;;;;6.40;4.20;;;;;;;-128.00;-1.00;-1.00;136214;1177;1097326;-75
2021/09/02 05:07:01;;;;;;;7.90;4.20;;;;;;;-128.00;-1.00;-1.00;136345;1177;1096792;-74
2021/09/02 05:10:09;;;;;;;5.90;4.00;;;;;;;-128.00;-1.00;-1.00;136279;1177;1096624;-73
2021/09/02 05:13:14;;;;;;;7.30;4.40;;;;;;;-128.00;-1.00;-1.00;136284;1177;1094384;-72
2021/09/02 05:16:19;;;;;;;6.30;3.80;;;;;;;-128.00;-1.00;-1.00;136208;1177;1097118;-74
2021/09/02 05:19:25;;;;;;;9.00;3.60;;;;;;;-128.00;-1.00;-1.00;136264;1178;1097219;-75
2021/09/02 05:22:30;;;;;;;8.20;4.20;;;;;;;-128.00;-1.00;-1.00;136286;1177;1096699;-71
2021/09/02 05:25:35;;;;;;;8.00;4.30;;;;;;;-128.00;-1.00;-1.00;136344;1177;1096141;-71
2021/09/02 05:28:41;;;;;;;6.60;4.10;;;;;;;-128.00;-1.00;-1.00;136029;1177;1096819;-75
2021/09/02 06:04:40;;;;;;;8.60;4.30;;;;;;;14.37;75.51;100763.26;137482;1199;647849;-70
2021/09/02 06:07:45;;;;;;;8.00;4.80;;;;;;;14.65;74.70;100763.65;139419;1183;108447;-69
2021/09/02 06:10:50;;;;;;;6.80;4.10;;;;;;;14.69;75.20;100761.36;139610;1184;108334;-68
2021/09/02 06:13:56;;;;;;;8.20;3.80;;;;;;;14.79;74.99;100760.90;139674;1183;108423;-70
2021/09/02 06:17:01;;;;;;;6.40;3.80;;;;;;;14.86;74.29;100765.46;139615;1183;108532;-69
2021/09/02 06:20:09;;;;;;;6.80;4.20;;;;;;;14.83;73.97;100766.67;139750;1183;108349;-69
2021/09/02 06:23:14;;;;;;;5.80;4.00;;;;;;;14.84;74.07;100763.52;139638;1183;108541;-69
2021/09/02 06:26:20;;;;;;;8.60;4.40;;;;;;;14.93;74.39;100757.91;139642;1183;108592;-69
2021/09/02 06:29:25;;;;;;;7.30;4.30;;;;;;;15.12;74.14;100753.48;139627;1183;108649;-69
2021/09/02 06:32:31;;;;;;;6.60;4.30;;;;;;;15.22;73.82;100752.19;139652;1183;108457;-69
2021/09/02 06:35:36;;;;;;;8.00;4.00;;;;;;;15.25;73.35;100755.50;139639;1184;108511;-69
2021/09/02 06:38:41;;;;;;;5.30;3.50;;;;;;;15.17;73.01;100762.98;139630;1183;107772;-69
2021/09/02 06:41:47;;;;;;;6.00;3.80;;;;;;;15.11;73.41;100762.55;139675;1183;108569;-69
2021/09/02 06:44:52;;;;;;;6.90;3.90;;;;;;;15.02;73.18;100763.40;139671;1183;108551;-68
2021/09/02 06:47:58;;;;;;;7.30;3.90;;;;;;;14.99;73.75;100758.47;139662;1183;108567;-69
2021/09/02 06:51:03;;;;;;;7.20;3.90;;;;;;;15.01;73.56;100762.13;139680;1184;108151;-69
2021/09/02 06:54:08;;;;;;;7.70;3.70;;;;;;;15.05;73.61;100762.67;139684;1183;108609;-69
2021/09/02 06:57:14;;;;;;;6.40;3.40;;;;;;;15.10;72.65;100766.95;139708;1184;108558;-69
2021/09/02 07:00:20;;;;;;;7.10;3.90;;;;;;;15.14;72.74;100766.88;139739;1183;108485;-69
2021/09/02 07:03:25;;;;;;;6.30;3.30;;;;;;;15.21;72.89;100768.79;139853;1187;107382;-69
2021/09/02 07:06:30;;;;;;;5.50;3.40;;;;;;;15.27;72.26;100756.85;139708;1183;106827;-69
2021/09/02 07:09:36;;;;;;;6.90;4.00;;;;;;;15.36;72.13;100757.70;139621;1183;108354;-68
2021/09/02 07:12:42;;;;;;;6.60;3.60;;;;;;;15.43;71.78;100755.62;139726;1183;108383;-69
2021/09/02 07:15:48;;;;;;;7.70;3.90;;;;;;;15.47;71.49;100760.16;139860;1183;108422;-69
2021/09/02 07:18:53;;;;;;;4.70;3.30;;;;;;;15.48;70.55;100764.02;139658;1189;110083;-69
2021/09/02 07:21:59;;;;;;;7.10;3.40;;;;;;;15.56;70.57;100769.16;139616;1183;108401;-69
2021/09/02 07:25:06;;;;;;;5.30;3.40;;;;;;;15.68;67.47;100779.86;139680;1183;108345;-70
2021/09/02 07:28:11;;;;;;;4.20;3.00;;;;;;;15.75;68.08;100779.48;139708;1183;108356;-69
2021/09/02 07:31:16;;;;;;;5.30;3.20;;;;;;;15.83;67.81;100779.05;139770;1183;108451;-69
2021/09/02 07:34:22;;;;;;;4.90;3.10;;;;;;;15.80;68.49;100776.73;139676;1183;108467;-69
2021/09/02 07:37:27;;;;;;;5.60;3.50;;;;;;;15.89;69.08;100781.48;139660;1183;107497;-68
2021/09/02 07:40:33;;;;;;;4.40;3.00;;;;;;;15.97;68.85;100781.78;139582;1183;108523;-69
2021/09/02 07:43:38;;;;;;;5.60;2.90;;;;;;;16.09;69.07;100784.39;139718;1183;108393;-70
2021/09/02 07:46:44;;;;;;;4.60;3.00;;;;;;;16.28;67.39;100785.58;139631;1183;107468;-70
2021/09/02 07:49:49;;;;;;;4.30;2.90;;;;;;;16.45;68.82;100777.42;139655;1183;108464;-69
2021/09/02 07:52:55;;;;;;;6.00;3.30;;;;;;;16.62;68.40;100784.23;139605;1183;108501;-70
2021/09/02 07:56:00;;;;;;;4.30;2.90;;;;;;;16.74;67.67;100788.31;139726;1184;108308;-69
2021/09/02 07:59:05;;;;;;;3.90;2.90;;;;;;;16.74;66.01;100792.28;139699;1180;108759;-68
2021/09/02 08:02:11;;;;;;;3.50;2.80;;;;;;;16.69;66.10;100789.95;139749;1181;108512;-69
2021/09/02 08:05:17;;;;;;;4.20;2.80;;;;;;;16.64;67.21;100789.63;139655;1180;108421;-70
2021/09/02 08:08:22;;;;;;;3.90;2.90;;;;;;;16.61;65.18;100793.98;139661;1180;108627;-69
2021/09/02 08:11:29;;;;;;;4.70;3.10;;;;;;;16.59;65.33;100789.89;139766;1181;107050;-69
2021/09/02 08:14:35;;;;;;;5.80;3.20;;;;;;;16.58;65.11;100793.82;139668;1180;108304;-69
2021/09/02 08:17:41;;;;;;;5.70;3.30;;;;;;;16.66;67.28;100783.93;139683;1180;108427;-69
